Time;durP1;ratioP1;P1;durP2;ratioP2;P2;SDS_P1;SDS_P2;PMS_P1;PMS_P2;Temp;Humidity;BMP_temperature;BMP_pressure;BME280_temperature;BME280_humidity;BME280_pressure;Samples;Min_cycle;Max_cycle;Signal;HPM_P1;HPM_P2
2023/08/18 00:01:34;;;;;;;6.00;2.80;;;;;;;;;;5013895;28;20044;-55
2023/08/18 00:04:00;;;;;;;5.80;3.58;;;;;;;;;;5027814;28;20450;-55
2023/08/18 00:06:25;;;;;;;3.63;2.67;;;;;;;;;;5027827;28;20040;-55
2023/08/18 00:08:50;;;;;;;5.23;2.87;;;;;;;;;;5045717;28;20263;-56
2023/08/18 00:11:16;;;;;;;4.40;2.58;;;;;;;;;;5029278;28;20124;-56
2023/08/18 00:13:41;;;;;;;4.47;3.13;;;;;;;;;;5027584;28;20127;-57
2023/08/18 00:16:06;;;;;;;3.30;2.60;;;;;;;;;;5027861;28;20024;-55
2023/08/18 00:18:31;;;;;;;5.03;2.77;;;;;;;;;;5011097;28;20018;-57
2023/08/18 00:20:57;;;;;;;6.47;2.93;;;;;;;;;;5010073;28;20017;-56
2023/08/18 00:23:22;;;;;;;4.93;2.90;;;;;;;;;;5026827;28;20383;-56
2023/08/18 00:25:48;;;;;;;4.22;2.90;;;;;;;;;;5033980;28;20361;-56
2023/08/18 00:28:13;;;;;;;4.83;2.70;;;;;;;;;;5027524;28;20096;-56
2023/08/18 00:30:38;;;;;;;5.70;3.10;;;;;;;;;;5027097;28;20252;-56
2023/08/18 00:33:03;;;;;;;5.40;3.10;;;;;;;;;;5026273;28;20312;-55
2023/08/18 00:35:29;;;;;;;5.45;2.63;;;;;;;;;;5027517;28;20053;-56
2023/08/18 00:37:54;;;;;;;4.63;2.93;;;;;;;;;;5027147;28;20022;-56
2023/08/18 00:40:19;;;;;;;4.07;2.97;;;;;;;;;;5026988;28;20261;-56
2023/08/18 00:42:44;;;;;;;7.05;3.40;;;;;;;;;;5026792;28;20117;-56
2023/08/18 00:45:10;;;;;;;8.00;3.05;;;;;;;;;;5026027;28;20137;-56
2023/08/18 00:47:35;;;;;;;6.00;3.30;;;;;;;;;;5008149;28;20041;-56
2023/08/18 00:50:00;;;;;;;4.47;2.70;;;;;;;;;;5026391;28;20888;-55
2023/08/18 00:52:25;;;;;;;4.97;2.97;;;;;;;;;;5026576;28;20506;-57
2023/08/18 00:54:51;;;;;;;7.93;3.03;;;;;;;;;;5007952;28;20349;-56
2023/08/18 00:57:16;;;;;;;5.70;3.15;;;;;;;;;;5026199;28;20030;-56
2023/08/18 00:59:41;;;;;;;4.50;2.90;;;;;;;;;;5009950;28;20057;-56
2023/08/18 01:02:06;;;;;;;4.20;2.85;;;;;;;;;;5046148;28;20037;-57
2023/08/18 01:04:32;;;;;;;6.13;2.90;;;;;;;;;;5008038;28;20116;-56
2023/08/18 01:06:57;;;;;;;5.70;2.80;;;;;;;;;;5026360;28;20075;-56
2023/08/18 01:09:23;;;;;;;7.70;2.83;;;;;;;;;;5026716;28;20547;-56
2023/08/18 01:11:51;;;;;;;6.53;2.88;;;;;;;;;;5008730;28;20030;-56
2023/08/18 01:14:32;;;;;;;5.70;2.83;;;;;;;;;;5025245;28;20049;-57
2023/08/18 01:16:59;;;;;;;4.50;3.00;;;;;;;;;;5025960;28;20351;-57
2023/08/18 01:19:24;;;;;;;5.15;2.70;;;;;;;;;;5045004;28;20060;-56
2023/08/18 01:21:51;;;;;;;4.33;3.23;;;;;;;;;;5046358;28;20561;-57
2023/08/18 01:24:16;;;;;;;4.45;3.28;;;;;;;;;;5029067;28;20276;-58
2023/08/18 01:26:42;;;;;;;6.30;3.10;;;;;;;;;;5025724;28;20113;-58
2023/08/18 01:29:07;;;;;;;8.25;3.75;;;;;;;;;;5025834;28;20045;-56
2023/08/18 01:31:32;;;;;;;5.83;3.37;;;;;;;;;;5007873;28;20868;-56
2023/08/18 01:34:02;;;;;;;8.23;3.57;;;;;;;;;;5028101;28;20072;-56
2023/08/18 01:36:32;;;;;;;6.97;3.40;;;;;;;;;;5027731;28;20372;-56
2023/08/18 01:38:57;;;;;;;;;;;;;;;;;;4991773;28;20041;-56
2023/08/18 01:41:22;;;;;;;7.03;4.30;;;;;;;;;;5025318;28;19909;-56
2023/08/18 01:43:48;;;;;;;6.10;3.58;;;;;;;;;;5019862;28;20604;-56
2023/08/18 01:46:13;;;;;;;6.38;3.58;;;;;;;;;;5045010;28;20041;-56
2023/08/18 01:48:38;;;;;;;8.17;3.37;;;;;;;;;;5026777;28;20061;-56
2023/08/18 01:51:03;;;;;;;6.97;3.63;;;;;;;;;;4999253;28;20025;-57
2023/08/18 01:53:29;;;;;;;7.87;3.90;;;;;;;;;;5005433;28;20056;-56
2023/08/18 01:55:54;;;;;;;5.57;3.53;;;;;;;;;;5013221;28;20033;-56
2023/08/18 01:58:19;;;;;;;8.10;3.53;;;;;;;;;;5025358;28;20288;-56
2023/08/18 02:00:44;;;;;;;5.72;3.83;;;;;;;;;;5024960;28;20649;-56
2023/08/18 02:03:10;;;;;;;5.63;3.37;;;;;;;;;;5024987;28;20048;-59
2023/08/18 02:05:39;;;;;;;7.00;4.07;;;;;;;;;;5024702;28;20037;-56
2023/08/18 02:08:04;;;;;;;6.23;3.90;;;;;;;;;;5028414;28;20385;-56
2023/08/18 02:10:29;;;;;;;5.90;3.47;;;;;;;;;;5025240;28;20630;-55
2023/08/18 02:12:55;;;;;;;9.43;3.80;;;;;;;;;;5024742;28;20113;-56
2023/08/18 02:15:20;;;;;;;7.57;4.13;;;;;;;;;;5024155;28;20879;-57
2023/08/18 02:17:45;;;;;;;7.57;3.60;;;;;;;;;;5007213;28;20272;-56
2023/08/18 02:20:10;;;;;;;4.23;3.83;;;;;;;;;;5025029;28;20042;-56
2023/08/18 02:22:36;;;;;;;7.20;4.15;;;;;;;;;;5024853;28;20033;-56
2023/08/18 02:25:01;;;;;;;7.43;3.85;;;;;;;;;;5035057;28;20224;-56
2023/08/18 02:27:26;;;;;;;5.07;3.70;;;;;;;;;;5024721;28;20513;-56
2023/08/18 02:29:52;;;;;;;4.67;3.60;;;;;;;;;;5024880;28;20414;-56
2023/08/18 02:32:18;;;;;;;5.15;3.58;;;;;;;;;;5007403;28;20593;-56
2023/08/18 02:34:43;;;;;;;6.60;3.90;;;;;;;;;;5024799;28;20069;-57
2023/08/18 02:37:08;;;;;;;5.75;3.50;;;;;;;;;;5010738;28;20053;-56
2023/08/18 02:39:34;;;;;;;5.27;3.40;;;;;;;;;;5024961;28;20037;-57
2023/08/18 02:41:59;;;;;;;5.13;3.60;;;;;;;;;;5037313;28;20037;-56
2023/08/18 02:44:25;;;;;;;5.43;3.37;;;;;;;;;;5044940;28;20044;-56
2023/08/18 02:46:51;;;;;;;7.57;4.00;;;;;;;;;;5026718;28;20056;-57
2023/08/18 02:49:16;;;;;;;5.63;3.93;;;;;;;;;;5024923;28;20041;-56
2023/08/18 02:51:41;;;;;;;6.07;3.60;;;;;;;;;;5024611;28;20706;-56
2023/08/18 02:54:06;;;;;;;5.20;3.70;;;;;;;;;;5025278;28;20748;-57
2023/08/18 02:56:32;;;;;;;5.07;3.70;;;;;;;;;;5024249;28;20411;-56
2023/08/18 02:58:57;;;;;;;6.07;3.80;;;;;;;;;;5032649;28;20502;-56
2023/08/18 03:01:22;;;;;;;5.27;3.17;;;;;;;;;;5044720;28;20029;-56
2023/08/18 03:03:47;;;;;;;4.83;3.20;;;;;;;;;;5044865;28;20279;-56
2023/08/18 03:06:12;;;;;;;5.80;3.93;;;;;;;;;;5033886;28;20041;-56
2023/08/18 03:08:39;;;;;;;5.83;3.60;;;;;;;;;;5024363;28;20276;-55
2023/08/18 03:11:04;;;;;;;5.05;3.70;;;;;;;;;;5024644;28;20279;-56
2023/08/18 03:13:30;;;;;;;5.65;3.55;;;;;;;;;;5028200;28;20034;-56
2023/08/18 03:15:55;;;;;;;5.82;3.58;;;;;;;;;;5028182;28;20534;-56
2023/08/18 03:18:20;;;;;;;7.33;3.47;;;;;;;;;;5028095;28;20140;-57
2023/08/18 03:20:46;;;;;;;5.07;3.63;;;;;;;;;;5028285;28;20279;-57
2023/08/18 03:23:15;;;;;;;5.40;3.60;;;;;;;;;;5010618;28;20113;-57
2023/08/18 03:25:40;;;;;;;5.43;3.60;;;;;;;;;;5028098;28;20514;-56
2023/08/18 03:28:07;;;;;;;4.70;3.85;;;;;;;;;;5027664;28;20045;-56
2023/08/18 03:30:32;;;;;;;4.53;3.50;;;;;;;;;;5027970;28;20032;-56
2023/08/18 03:32:57;;;;;;;4.77;3.77;;;;;;;;;;5011512;28;20427;-56
2023/08/18 03:35:22;;;;;;;6.93;3.90;;;;;;;;;;5029149;28;20427;-55
2023/08/18 03:37:48;;;;;;;6.23;3.70;;;;;;;;;;5027491;28;20128;-57
2023/08/18 03:40:13;;;;;;;6.38;3.70;;;;;;;;;;5027806;28;20307;-56
2023/08/18 03:42:38;;;;;;;6.53;3.38;;;;;;;;;;5031378;28;20040;-56
2023/08/18 03:45:04;;;;;;;7.83;3.47;;;;;;;;;;5013118;28;20029;-56
2023/08/18 03:47:30;;;;;;;5.93;4.00;;;;;;;;;;5013776;28;20304;-57
2023/08/18 03:49:55;;;;;;;5.10;3.80;;;;;;;;;;5027640;28;20128;-60
2023/08/18 03:52:20;;;;;;;6.97;3.87;;;;;;;;;;5045204;28;20099;-56
2023/08/18 03:54:45;;;;;;;7.23;3.77;;;;;;;;;;5047592;28;20072;-56
2023/08/18 03:57:10;;;;;;;5.17;3.90;;;;;;;;;;5035424;28;20037;-57
2023/08/18 03:59:36;;;;;;;4.27;3.63;;;;;;;;;;5027430;28;20784;-56
2023/08/18 04:02:01;;;;;;;6.87;4.37;;;;;;;;;;5039252;28;20406;-57
2023/08/18 04:04:26;;;;;;;7.03;3.73;;;;;;;;;;5046233;28;20112;-56
2023/08/18 04:06:51;;;;;;;7.80;4.23;;;;;;;;;;5043994;28;20052;-56
2023/08/18 04:09:16;;;;;;;7.07;4.03;;;;;;;;;;5034641;28;20087;-57
2023/08/18 04:11:43;;;;;;;6.87;4.37;;;;;;;;;;5026511;28;20033;-57
2023/08/18 04:14:08;;;;;;;8.00;4.45;;;;;;;;;;5026815;28;20107;-56
2023/08/18 04:16:33;;;;;;;5.63;4.03;;;;;;;;;;5009443;28;20041;-56
2023/08/18 04:18:58;;;;;;;5.50;4.22;;;;;;;;;;5026844;28;20511;-58
2023/08/18 04:21:27;;;;;;;8.50;4.10;;;;;;;;;;5010498;28;20128;-56
2023/08/18 04:23:52;;;;;;;7.72;4.22;;;;;;;;;;5027019;28;20824;-56
2023/08/18 04:26:17;;;;;;;7.35;3.97;;;;;;;;;;5026318;28;20219;-56
2023/08/18 04:28:42;;;;;;;10.27;4.77;;;;;;;;;;5026787;28;20073;-57
2023/08/18 04:31:08;;;;;;;6.53;4.20;;;;;;;;;;5009060;28;20038;-56
2023/08/18 04:33:33;;;;;;;7.30;4.37;;;;;;;;;;5009062;28;20370;-56
2023/08/18 04:35:58;;;;;;;8.90;4.78;;;;;;;;;;5026791;28;20685;-57
2023/08/18 04:38:24;;;;;;;7.50;4.23;;;;;;;;;;5026346;28;20030;-57
2023/08/18 04:40:56;;;;;;;9.23;4.28;;;;;;;;;;5026653;28;20276;-57
2023/08/18 04:43:21;;;;;;;5.93;4.38;;;;;;;;;;5026438;28;20042;-56
2023/08/18 04:45:46;;;;;;;6.83;4.33;;;;;;;;;;5026623;28;20030;-56
2023/08/18 04:48:11;;;;;;;8.27;4.00;;;;;;;;;;5007979;28;20802;-56
2023/08/18 04:50:36;;;;;;;8.33;4.83;;;;;;;;;;5026392;28;20603;-57
2023/08/18 04:53:02;;;;;;;8.70;4.60;;;;;;;;;;5026479;28;20426;-56
2023/08/18 04:55:27;;;;;;;6.43;4.20;;;;;;;;;;5017727;28;20354;-57
2023/08/18 04:57:52;;;;;;;5.60;4.57;;;;;;;;;;5021453;28;20277;-57
2023/08/18 05:00:17;;;;;;;5.97;4.57;;;;;;;;;;5013963;28;20288;-57
2023/08/18 05:02:43;;;;;;;7.03;4.70;;;;;;;;;;5014091;28;20906;-56
2023/08/18 05:05:08;;;;;;;7.37;4.00;;;;;;;;;;5003254;28;20296;-55
2023/08/18 05:07:33;;;;;;;9.30;4.73;;;;;;;;;;5017666;28;20369;-57
2023/08/18 05:09:58;;;;;;;7.77;4.77;;;;;;;;;;5010641;28;20038;-56
2023/08/18 05:12:23;;;;;;;5.70;4.47;;;;;;;;;;5018538;28;20292;-56
2023/08/18 05:14:49;;;;;;;6.50;4.47;;;;;;;;;;4994389;28;20541;-56
2023/08/18 05:17:14;;;;;;;5.77;4.60;;;;;;;;;;4999117;28;20293;-55
2023/08/18 05:19:39;;;;;;;6.13;4.30;;;;;;;;;;5017117;28;20065;-55
2023/08/18 05:22:04;;;;;;;6.30;4.30;;;;;;;;;;5013049;28;20050;-55
2023/08/18 05:24:30;;;;;;;7.43;4.23;;;;;;;;;;5015379;28;20291;-56
2023/08/18 05:26:55;;;;;;;6.75;3.90;;;;;;;;;;5011884;28;20034;-56
2023/08/18 05:29:20;;;;;;;7.87;4.33;;;;;;;;;;5011227;28;20120;-55
2023/08/18 05:31:45;;;;;;;6.20;4.20;;;;;;;;;;5010364;28;20296;-54
2023/08/18 05:34:10;;;;;;;9.95;4.45;;;;;;;;;;5010057;28;20049;-56
2023/08/18 05:36:36;;;;;;;7.90;4.60;;;;;;;;;;5009939;28;20336;-57
2023/08/18 05:39:01;;;;;;;9.80;4.80;;;;;;;;;;5010661;28;20288;-55
2023/08/18 05:41:27;;;;;;;8.25;5.05;;;;;;;;;;4997920;28;20503;-56
2023/08/18 05:43:52;;;;;;;8.35;4.57;;;;;;;;;;5010633;28;20043;-58
2023/08/18 05:46:17;;;;;;;8.17;4.57;;;;;;;;;;5010797;28;20033;-55
2023/08/18 05:48:42;;;;;;;6.77;4.30;;;;;;;;;;5011351;28;20119;-55
2023/08/18 05:51:08;;;;;;;7.30;4.57;;;;;;;;;;4993035;28;20493;-56
2023/08/18 05:53:33;;;;;;;6.82;4.25;;;;;;;;;;4992887;28;20124;-55
2023/08/18 05:55:59;;;;;;;7.88;4.30;;;;;;;;;;4994257;28;20119;-55
2023/08/18 05:58:24;;;;;;;7.18;4.47;;;;;;;;;;4991584;28;20030;-56
2023/08/18 06:00:49;;;;;;;10.33;4.93;;;;;;;;;;5008661;28;20529;-55
2023/08/18 06:03:15;;;;;;;7.03;3.67;;;;;;;;;;5011148;28;20526;-56
2023/08/18 06:05:40;;;;;;;10.35;4.43;;;;;;;;;;4992808;28;20471;-59
2023/08/18 06:08:05;;;;;;;6.70;4.20;;;;;;;;;;5008976;28;20117;-55
2023/08/18 06:10:30;;;;;;;7.40;4.47;;;;;;;;;;5011428;28;20053;-55
2023/08/18 06:12:56;;;;;;;8.83;4.40;;;;;;;;;;4994285;28;20291;-55
2023/08/18 06:15:21;;;;;;;6.07;4.00;;;;;;;;;;5011741;28;20059;-55
2023/08/18 06:17:47;;;;;;;9.90;4.30;;;;;;;;;;5010794;28;20038;-56
2023/08/18 06:20:13;;;;;;;5.60;3.67;;;;;;;;;;5011117;28;20608;-56
2023/08/18 06:22:38;;;;;;;7.93;4.35;;;;;;;;;;5010329;28;20030;-55
2023/08/18 06:25:04;;;;;;;6.40;4.28;;;;;;;;;;5009093;28;20516;-56
2023/08/18 06:27:29;;;;;;;6.65;4.00;;;;;;;;;;4998471;28;20034;-55
2023/08/18 06:29:55;;;;;;;6.73;4.30;;;;;;;;;;5010048;28;20767;-55
2023/08/18 06:32:20;;;;;;;9.40;4.40;;;;;;;;;;4992464;28;20636;-56
2023/08/18 06:34:45;;;;;;;6.00;3.80;;;;;;;;;;5009254;28;20053;-57
2023/08/18 06:37:10;;;;;;;7.37;3.90;;;;;;;;;;5009725;28;20034;-56
2023/08/18 06:39:36;;;;;;;6.93;4.00;;;;;;;;;;5009537;28;20036;-56
2023/08/18 06:42:01;;;;;;;7.07;4.13;;;;;;;;;;5009369;28;20026;-56
2023/08/18 06:44:26;;;;;;;7.07;3.90;;;;;;;;;;5009590;28;20120;-56
2023/08/18 06:46:51;;;;;;;5.47;4.03;;;;;;;;;;4995232;28;20133;-56
2023/08/18 06:49:17;;;;;;;7.83;4.27;;;;;;;;;;5014429;28;20037;-55
2023/08/18 06:51:42;;;;;;;7.25;4.30;;;;;;;;;;5011582;28;20104;-55
2023/08/18 06:54:07;;;;;;;7.10;3.80;;;;;;;;;;5012910;28;20136;-56
2023/08/18 06:56:33;;;;;;;7.32;3.92;;;;;;;;;;5011840;28;20129;-56
2023/08/18 06:58:58;;;;;;;8.40;3.90;;;;;;;;;;4986379;28;20249;-57
2023/08/18 07:01:24;;;;;;;6.80;4.00;;;;;;;;;;5004620;28;20180;-55
2023/08/18 07:03:49;;;;;;;6.55;3.67;;;;;;;;;;5007807;28;20292;-56
2023/08/18 07:06:14;;;;;;;6.03;3.90;;;;;;;;;;5013741;28;20199;-55
2023/08/18 07:08:39;;;;;;;9.37;4.20;;;;;;;;;;5012469;28;20128;-55
2023/08/18 07:11:05;;;;;;;10.37;4.00;;;;;;;;;;5012951;28;20150;-56
2023/08/18 07:13:30;;;;;;;11.67;4.07;;;;;;;;;;5000521;28;20092;-56
2023/08/18 07:15:55;;;;;;;7.38;3.97;;;;;;;;;;5015747;28;20288;-56
2023/08/18 07:18:20;;;;;;;6.60;3.73;;;;;;;;;;5017277;28;20037;-56
2023/08/18 07:20:46;;;;;;;8.33;3.90;;;;;;;;;;5014767;28;20299;-55
2023/08/18 07:23:11;;;;;;;6.70;3.88;;;;;;;;;;5014793;28;20038;-56
2023/08/18 07:25:37;;;;;;;6.33;3.67;;;;;;;;;;5015378;28;20037;-57
2023/08/18 07:28:02;;;;;;;8.30;3.85;;;;;;;;;;4997393;28;20045;-58
2023/08/18 07:30:28;;;;;;;4.57;3.60;;;;;;;;;;5017834;28;20032;-57
2023/08/18 07:32:54;;;;;;;7.95;3.72;;;;;;;;;;5013080;28;20026;-58
2023/08/18 07:35:19;;;;;;;5.88;3.95;;;;;;;;;;5014579;28;20064;-54
2023/08/18 07:37:44;;;;;;;6.35;3.92;;;;;;;;;;5014121;28;20045;-55
2023/08/18 07:40:10;;;;;;;7.13;3.90;;;;;;;;;;5013942;28;20532;-54
2023/08/18 07:42:36;;;;;;;8.02;3.70;;;;;;;;;;5014831;28;20617;-55
2023/08/18 07:45:02;;;;;;;8.32;3.88;;;;;;;;;;4980421;28;20033;-55
2023/08/18 07:47:28;;;;;;;9.43;3.60;;;;;;;;;;5013857;28;20033;-55
2023/08/18 07:49:53;;;;;;;7.85;3.60;;;;;;;;;;5016002;28;20033;-55
2023/08/18 07:52:18;;;;;;;6.10;3.63;;;;;;;;;;5011953;28;20494;-54
2023/08/18 07:54:43;;;;;;;7.27;3.77;;;;;;;;;;4996163;28;20515;-55
2023/08/18 07:57:09;;;;;;;9.40;3.92;;;;;;;;;;5013339;28;20281;-56
2023/08/18 07:59:34;;;;;;;7.57;4.10;;;;;;;;;;5013825;28;20457;-56
2023/08/18 08:01:59;;;;;;;9.13;3.60;;;;;;;;;;5012325;28;20026;-56
2023/08/18 08:04:25;;;;;;;7.43;3.10;;;;;;;;;;5016043;28;20295;-56
2023/08/18 08:06:52;;;;;;;5.93;3.65;;;;;;;;;;5012656;28;20038;-56
2023/08/18 08:09:17;;;;;;;4.68;3.33;;;;;;;;;;5014611;28;20852;-56
2023/08/18 08:11:43;;;;;;;6.93;3.50;;;;;;;;;;5023017;28;20041;-55
2023/08/18 08:14:08;;;;;;;6.13;3.30;;;;;;;;;;5026445;28;20810;-55
2023/08/18 08:16:35;;;;;;;7.77;3.30;;;;;;;;;;5026408;28;20124;-55
2023/08/18 08:19:01;;;;;;;6.72;3.05;;;;;;;;;;5027095;28;20473;-56
2023/08/18 08:21:26;;;;;;;5.13;3.60;;;;;;;;;;5026138;28;20500;-57
2023/08/18 08:23:51;;;;;;;6.97;3.40;;;;;;;;;;5026962;28;20034;-57
2023/08/18 08:26:16;;;;;;;5.40;3.10;;;;;;;;;;5014179;28;20038;-56
2023/08/18 08:28:42;;;;;;;7.43;3.37;;;;;;;;;;5010230;28;20040;-57
2023/08/18 08:31:07;;;;;;;7.13;3.33;;;;;;;;;;5026929;28;20034;-55
2023/08/18 08:33:33;;;;;;;6.23;3.20;;;;;;;;;;5026225;28;20057;-55
2023/08/18 08:35:58;;;;;;;5.35;3.00;;;;;;;;;;5026809;28;20033;-55
2023/08/18 08:38:23;;;;;;;5.00;2.90;;;;;;;;;;5031329;28;20386;-56
2023/08/18 08:40:51;;;;;;;4.53;2.80;;;;;;;;;;5041797;28;20120;-55
2023/08/18 08:43:17;;;;;;;6.05;3.00;;;;;;;;;;5028967;28;20033;-55
2023/08/18 08:45:42;;;;;;;4.07;2.60;;;;;;;;;;5046628;28;20040;-55
2023/08/18 08:48:07;;;;;;;6.22;2.90;;;;;;;;;;5046346;28;20060;-55
2023/08/18 08:50:34;;;;;;;3.67;2.60;;;;;;;;;;5044065;28;20030;-56
2023/08/18 08:53:00;;;;;;;6.38;2.90;;;;;;;;;;5025066;28;20182;-55
2023/08/18 08:55:26;;;;;;;4.22;2.80;;;;;;;;;;5026657;28;20390;-55
2023/08/18 08:57:51;;;;;;;5.60;2.50;;;;;;;;;;5007541;28;20112;-56
2023/08/18 09:00:16;;;;;;;5.63;2.80;;;;;;;;;;5025198;28;20410;-56
2023/08/18 09:02:42;;;;;;;4.75;2.35;;;;;;;;;;5025610;28;20463;-55
2023/08/18 09:05:07;;;;;;;3.10;2.20;;;;;;;;;;5026108;28;20100;-55
2023/08/18 09:07:33;;;;;;;3.95;2.45;;;;;;;;;;5026016;28;20014;-56
2023/08/18 09:09:58;;;;;;;3.83;2.40;;;;;;;;;;5023610;28;20017;-56
2023/08/18 09:12:28;;;;;;;7.00;2.50;;;;;;;;;;5025160;28;20108;-56
2023/08/18 09:14:53;;;;;;;4.30;2.47;;;;;;;;;;5025826;28;20453;-56
2023/08/18 09:17:19;;;;;;;5.22;2.65;;;;;;;;;;5008330;28;20014;-55
2023/08/18 09:19:44;;;;;;;5.18;2.28;;;;;;;;;;5040616;28;20062;-56
2023/08/18 09:22:11;;;;;;;5.93;2.23;;;;;;;;;;5007564;28;20480;-56
2023/08/18 09:24:36;;;;;;;5.60;2.20;;;;;;;;;;5026144;28;20030;-56
2023/08/18 09:27:08;;;;;;;4.93;2.37;;;;;;;;;;5025596;28;20093;-56
2023/08/18 09:29:33;;;;;;;4.30;2.30;;;;;;;;;;5006283;28;20331;-56
2023/08/18 09:31:58;;;;;;;5.10;2.13;;;;;;;;;;5022099;28;20394;-57
2023/08/18 09:34:24;;;;;;;6.07;2.40;;;;;;;;;;5035677;28;20048;-56
2023/08/18 09:36:52;;;;;;;4.55;2.50;;;;;;;;;;5031185;28;20367;-56
2023/08/18 09:39:18;;;;;;;5.95;2.50;;;;;;;;;;5026053;28;20032;-56
2023/08/18 09:41:45;;;;;;;5.68;2.45;;;;;;;;;;5006974;28;20044;-55
2023/08/18 09:44:10;;;;;;;6.20;2.38;;;;;;;;;;5024078;28;20056;-56
2023/08/18 09:46:36;;;;;;;6.23;2.40;;;;;;;;;;5024227;28;20370;-57
2023/08/18 09:49:01;;;;;;;6.30;2.57;;;;;;;;;;5006762;28;20131;-56
2023/08/18 09:51:26;;;;;;;4.30;2.55;;;;;;;;;;5035119;28;20528;-56
2023/08/18 09:53:55;;;;;;;3.43;2.30;;;;;;;;;;5023877;28;20103;-56
2023/08/18 09:56:25;;;;;;;4.78;2.65;;;;;;;;;;5023814;28;20410;-56
2023/08/18 09:58:56;;;;;;;6.03;2.60;;;;;;;;;;5025301;28;20075;-56
2023/08/18 10:01:22;;;;;;;4.60;2.58;;;;;;;;;;5007832;28;20045;-57
2023/08/18 10:03:47;;;;;;;4.23;2.77;;;;;;;;;;5023976;28;20052;-57
2023/08/18 10:06:12;;;;;;;6.23;2.53;;;;;;;;;;5025542;28;20040;-56
2023/08/18 10:08:37;;;;;;;6.23;2.73;;;;;;;;;;5025351;28;20112;-57
2023/08/18 10:11:03;;;;;;;4.13;2.58;;;;;;;;;;5024891;28;20068;-56
2023/08/18 10:13:33;;;;;;;4.33;2.40;;;;;;;;;;5006959;28;20127;-57
2023/08/18 10:15:58;;;;;;;4.00;2.50;;;;;;;;;;5006916;28;20268;-57
2023/08/18 10:18:23;;;;;;;5.93;2.28;;;;;;;;;;5012111;28;20037;-57
2023/08/18 10:20:49;;;;;;;5.87;2.60;;;;;;;;;;5041714;28;20032;-57
2023/08/18 10:23:15;;;;;;;5.25;2.58;;;;;;;;;;5024380;28;20287;-57
2023/08/18 10:25:40;;;;;;;5.88;2.80;;;;;;;;;;5025081;28;20037;-57
2023/08/18 10:28:06;;;;;;;4.07;2.70;;;;;;;;;;5007150;28;20033;-57
2023/08/18 10:30:31;;;;;;;6.05;2.50;;;;;;;;;;5043827;28;20060;-58
2023/08/18 10:33:00;;;;;;;4.30;2.10;;;;;;;;;;5018331;28;20096;-57
2023/08/18 10:35:27;;;;;;;7.27;2.53;;;;;;;;;;4987653;28;20281;-57
2023/08/18 10:37:56;;;;;;;5.38;2.45;;;;;;;;;;5005288;28;20047;-57
2023/08/18 10:40:22;;;;;;;;;;;;;;;;;;5005560;28;20034;-57
2023/08/18 10:42:49;;;;;;;7.18;3.60;;;;;;;;;;5012636;28;20365;-57
2023/08/18 10:45:24;;;;;;;15.45;5.10;;;;;;;;;;5023240;28;20517;-56
2023/08/18 10:47:49;;;;;;;28.35;13.38;;;;;;;;;;5006606;28;20048;-57
2023/08/18 10:50:14;;;;;;;58.43;25.57;;;;;;;;;;5024834;28;20034;-58
2023/08/18 10:52:40;;;;;;;40.85;17.45;;;;;;;;;;5024196;28;20854;-57
2023/08/18 10:55:06;;;;;;;24.27;10.65;;;;;;;;;;5024715;28;20041;-57
2023/08/18 10:57:33;;;;;;;20.42;9.52;;;;;;;;;;5024824;28;20494;-57
2023/08/18 10:59:58;;;;;;;8.95;4.63;;;;;;;;;;5034591;28;20056;-57
2023/08/18 11:02:24;;;;;;;8.83;3.73;;;;;;;;;;5023669;28;20111;-56
2023/08/18 11:04:49;;;;;;;9.40;3.83;;;;;;;;;;4990230;28;20043;-56
2023/08/18 11:07:15;;;;;;;6.75;3.70;;;;;;;;;;5017475;28;20041;-58
2023/08/18 11:09:40;;;;;;;5.82;3.25;;;;;;;;;;5029046;28;20029;-58
2023/08/18 11:12:06;;;;;;;6.50;3.50;;;;;;;;;;5005661;28;20122;-58
2023/08/18 11:14:31;;;;;;;6.22;3.45;;;;;;;;;;5021429;28;20469;-57
2023/08/18 11:16:56;;;;;;;5.20;3.60;;;;;;;;;;5027126;28;20060;-58
2023/08/18 11:19:21;;;;;;;5.23;3.57;;;;;;;;;;5005957;28;20487;-58
2023/08/18 11:21:46;;;;;;;5.67;3.60;;;;;;;;;;5023464;28;20335;-58
2023/08/18 11:24:12;;;;;;;9.33;3.80;;;;;;;;;;5025907;28;20418;-58
2023/08/18 11:26:39;;;;;;;6.40;4.03;;;;;;;;;;5004643;28;20187;-58
2023/08/18 11:29:04;;;;;;;4.63;3.65;;;;;;;;;;5022903;28;20079;-57
2023/08/18 11:31:30;;;;;;;4.77;3.60;;;;;;;;;;5023753;28;20029;-57
2023/08/18 11:33:55;;;;;;;7.05;3.63;;;;;;;;;;5027264;28;20049;-56
2023/08/18 11:36:21;;;;;;;7.57;3.65;;;;;;;;;;5009916;28;20344;-57
2023/08/18 11:38:48;;;;;;;4.95;3.25;;;;;;;;;;5009982;28;20037;-59
2023/08/18 11:41:13;;;;;;;6.22;3.42;;;;;;;;;;5008088;28;20668;-58
2023/08/18 11:43:39;;;;;;;5.50;3.53;;;;;;;;;;5008010;28;20029;-57
2023/08/18 11:46:04;;;;;;;4.83;3.33;;;;;;;;;;5037043;28;20040;-59
2023/08/18 11:48:30;;;;;;;4.57;3.17;;;;;;;;;;5047404;28;20760;-58
2023/08/18 11:50:55;;;;;;;5.03;3.20;;;;;;;;;;5014537;28;20319;-58
2023/08/18 11:53:25;;;;;;;5.47;2.97;;;;;;;;;;5028841;28;20892;-59
2023/08/18 11:55:50;;;;;;;;;;;;;;;;;;5010365;28;20034;-58
2023/08/18 11:58:16;;;;;;;5.40;3.42;;;;;;;;;;5045261;28;19917;-58
2023/08/18 12:00:42;;;;;;;6.82;3.30;;;;;;;;;;5012765;28;20375;-58
2023/08/18 12:03:18;;;;;;;4.63;3.28;;;;;;;;;;5011979;28;20108;-58
2023/08/18 12:05:44;;;;;;;4.57;3.00;;;;;;;;;;4990677;28;20550;-58
2023/08/18 12:08:10;;;;;;;5.53;3.30;;;;;;;;;;5005149;28;20034;-58
2023/08/18 12:10:36;;;;;;;5.15;3.33;;;;;;;;;;5027141;28;20140;-58
2023/08/18 12:13:01;;;;;;;4.57;3.08;;;;;;;;;;5015481;28;20535;-58
2023/08/18 12:15:26;;;;;;;3.63;2.90;;;;;;;;;;5011687;28;20038;-58
2023/08/18 12:17:52;;;;;;;3.65;2.90;;;;;;;;;;5022728;28;20124;-57
2023/08/18 12:20:21;;;;;;;3.78;2.72;;;;;;;;;;5026191;28;20032;-56
2023/08/18 12:22:47;;;;;;;4.90;3.35;;;;;;;;;;5028488;28;20079;-57
2023/08/18 12:25:12;;;;;;;6.43;2.90;;;;;;;;;;5009061;28;20048;-58
2023/08/18 12:27:38;;;;;;;5.30;3.08;;;;;;;;;;5041760;28;20116;-58
2023/08/18 12:30:03;;;;;;;4.30;2.90;;;;;;;;;;5047071;28;20767;-56
2023/08/18 12:32:30;;;;;;;3.85;2.65;;;;;;;;;;5029658;28;20029;-58
2023/08/18 12:34:56;;;;;;;5.22;2.70;;;;;;;;;;5042846;28;20480;-57
2023/08/18 12:37:22;;;;;;;4.80;2.88;;;;;;;;;;5004296;28;20060;-57
2023/08/18 12:39:47;;;;;;;5.93;2.90;;;;;;;;;;5026549;28;20554;-58
2023/08/18 12:42:13;;;;;;;4.97;2.90;;;;;;;;;;5023428;28;20459;-57
2023/08/18 12:44:38;;;;;;;3.42;2.80;;;;;;;;;;5016159;28;20033;-56
2023/08/18 12:47:07;;;;;;;4.53;2.53;;;;;;;;;;5030901;28;20068;-57
2023/08/18 12:49:32;;;;;;;3.72;2.58;;;;;;;;;;5026375;28;20279;-57
2023/08/18 12:51:57;;;;;;;3.70;2.75;;;;;;;;;;5026525;28;20029;-56
2023/08/18 12:54:23;;;;;;;4.40;2.80;;;;;;;;;;5030739;28;20084;-57
2023/08/18 12:56:48;;;;;;;3.58;2.58;;;;;;;;;;5025793;28;20658;-56
2023/08/18 12:59:13;;;;;;;3.55;2.22;;;;;;;;;;5007673;28;20080;-57
2023/08/18 13:01:39;;;;;;;3.80;2.50;;;;;;;;;;5005423;28;20038;-57
2023/08/18 13:04:05;;;;;;;2.67;2.20;;;;;;;;;;5023627;28;20045;-57
2023/08/18 13:06:30;;;;;;;4.20;2.40;;;;;;;;;;5034156;28;20702;-57
2023/08/18 13:08:55;;;;;;;3.60;2.47;;;;;;;;;;5043289;28;20124;-57
2023/08/18 13:11:20;;;;;;;3.73;2.57;;;;;;;;;;5007675;28;20057;-57
2023/08/18 13:13:45;;;;;;;3.67;2.90;;;;;;;;;;5024825;28;20077;-57
2023/08/18 13:16:11;;;;;;;3.30;2.50;;;;;;;;;;5031994;28;20518;-58
2023/08/18 13:18:36;;;;;;;3.05;2.50;;;;;;;;;;5045514;28;20448;-56
2023/08/18 13:21:02;;;;;;;3.07;2.33;;;;;;;;;;5031337;28;20427;-59
2023/08/18 13:23:27;;;;;;;2.70;2.38;;;;;;;;;;5024282;28;20303;-58
2023/08/18 13:25:53;;;;;;;3.50;2.43;;;;;;;;;;5008180;28;20040;-58
2023/08/18 13:28:18;;;;;;;3.00;2.47;;;;;;;;;;5025797;28;20036;-58
2023/08/18 13:30:43;;;;;;;3.70;2.60;;;;;;;;;;5024179;28;20061;-58
2023/08/18 13:33:08;;;;;;;3.30;2.50;;;;;;;;;;5024672;28;20064;-58
2023/08/18 13:35:34;;;;;;;3.37;2.33;;;;;;;;;;5043763;28;20037;-58
2023/08/18 13:37:59;;;;;;;3.53;2.30;;;;;;;;;;5026348;28;20033;-59
2023/08/18 13:40:24;;;;;;;2.60;2.13;;;;;;;;;;5024128;28;20033;-59
2023/08/18 13:42:49;;;;;;;2.30;2.10;;;;;;;;;;5024853;28;20299;-59
2023/08/18 13:45:15;;;;;;;2.90;2.27;;;;;;;;;;5023847;28;20322;-58
2023/08/18 13:47:40;;;;;;;3.43;2.23;;;;;;;;;;5037041;28;20882;-58
2023/08/18 13:50:05;;;;;;;3.57;2.10;;;;;;;;;;5038951;28;20284;-58
2023/08/18 13:52:31;;;;;;;2.25;2.05;;;;;;;;;;5007048;28;20287;-58
2023/08/18 13:54:56;;;;;;;2.80;2.20;;;;;;;;;;5024150;28;20045;-59
2023/08/18 13:57:22;;;;;;;3.20;2.40;;;;;;;;;;5023522;28;20040;-58
2023/08/18 13:59:47;;;;;;;2.55;2.30;;;;;;;;;;5024425;28;20546;-58
2023/08/18 14:02:12;;;;;;;2.90;2.13;;;;;;;;;;5023544;28;20044;-58
2023/08/18 14:04:37;;;;;;;2.43;2.00;;;;;;;;;;5024652;28;20444;-58
2023/08/18 14:07:03;;;;;;;2.60;2.20;;;;;;;;;;5024873;28;20039;-59
2023/08/18 14:09:28;;;;;;;2.77;2.13;;;;;;;;;;5023639;28;20124;-59
2023/08/18 14:11:53;;;;;;;2.93;2.37;;;;;;;;;;5024757;28;20281;-58
2023/08/18 14:14:18;;;;;;;2.70;2.13;;;;;;;;;;5028149;28;20269;-58
2023/08/18 14:16:44;;;;;;;3.20;2.20;;;;;;;;;;5027937;28;20049;-58
2023/08/18 14:19:10;;;;;;;3.00;1.80;;;;;;;;;;5025419;28;20478;-59
2023/08/18 14:21:36;;;;;;;2.30;1.85;;;;;;;;;;5029843;28;21082;-58
2023/08/18 14:24:01;;;;;;;3.17;2.30;;;;;;;;;;5010390;28;20037;-58
2023/08/18 14:26:27;;;;;;;2.92;2.10;;;;;;;;;;5032365;28;20557;-58
2023/08/18 14:28:52;;;;;;;2.88;2.28;;;;;;;;;;5024457;28;20068;-58
2023/08/18 14:31:18;;;;;;;3.15;2.28;;;;;;;;;;5022317;28;20601;-58
2023/08/18 14:33:43;;;;;;;2.55;2.05;;;;;;;;;;5006438;28;20053;-58